Historyczne dane pomiarowe

Dodano dane terminowe – wersja testowa.

Dane z okresu 1951-2019

Wersja bazy: 1.34 [2019-03-16, lista zmian], aktualizacja planowana na 2019-04-15

Dane meteo z obszaru Polski uzyskane na podstawie danych udostępnionych przez Instytut Meteorologii i Gospodarki Wodnej – Państwowy Instytut Badawczy.

 

Wybierz Datę:    

       

TemperaturaWilgotnośćZachmurzenieWiatrCiśnienieWidzialnośćZjawiska
 Data    tng td wb rh cc ccl cl cm ch dir g1 g2 mslp ppp      
1999-07-09 00:00:00 15.6--- 15.3 15.498wxwxwxwx5wx--1021.0 996.5 1.2---wxw1
1999-07-09 01:00:00 15.7--- 15.4 15.598wxwxwxwx4wx--1021.0 996.5----wxw1
1999-07-09 02:00:00 15.5--- 15.2 15.398wxwxwxwx4wx--1021.3 996.7----wxw1
1999-07-09 03:00:00 15.4--- 15.1 15.298wxwxwxwx3wx--1021.2 996.6----wxw1
1999-07-09 04:00:00 15.4--- 14.9 15.197wxwxwx3wx--1021.7 997.1----wxw1
1999-07-09 05:00:00 16.5--- 16.3 16.499wxwxwx3wx--1021.2 996.7----wxw1
1999-07-09 06:00:00 17.0--- 16.8 16.999wxwxwxwx3wx--1021.4 997.0 0.8---wxw1
1999-07-09 07:00:00 17.5--- 17.2 17.398wxwxwx3wx--1021.6 997.2----wxw1
1999-07-09 08:00:00 18.1--- 17.6 17.897wxwxwxwx3wx--1021.3 997.0----wxw1
1999-07-09 09:00:00 18.4--- 17.8 18.096wxwxwx4wx--1021.6 997.3----wxw1
1999-07-09 10:00:00 18.6--- 17.7 18.094wxwxwx4wx--1022.3 998.0----wx
1999-07-09 11:00:00 18.6--- 16.9 17.590wxwxwx5wx--1022.1 997.8----wx
1999-07-09 12:00:00 18.6--- 16.9 17.590wxwxwx4wx--1022.2 997.9 0.1---wxw1
1999-07-09 13:00:00 19.4--- 17.1 17.986wxwxwx4wx--1021.9 997.7----wx
1999-07-09 14:00:00 19.7--- 15.6 17.177wxwxwxwx5wx--1021.9 997.7----wx
1999-07-09 15:00:00 20.1--- 17.0 18.182wxwxwxwx3wx--1021.7 997.5----wx
1999-07-09 16:00:00 20.1--- 17.0 18.182wxwxwxwx3wx--1021.8 997.6----wx
1999-07-09 17:00:00 21.2--- 16.4 18.174wxwxwxwx4wx--1021.6 997.5----wx
1999-07-09 18:00:00 20.6--- 17.7 18.783wxwxwxwx2wx--1021.8 997.7 0.0---wx
1999-07-09 19:00:00 19.9--- 17.1 18.184wxwxwxwx3wx--1021.9 997.7----wx
1999-07-09 20:00:00 19.4--- 17.4 18.188wxwxwxwx3wx--1021.6 997.4----wx
1999-07-09 21:00:00 19.4--- 17.4 18.188wxwxwxwx3wx--1021.3 997.1----wx
1999-07-09 22:00:00 19.6--- 17.4 18.287wxwxwxwx3wx--1020.6 996.4----wx
1999-07-09 23:00:00 19.6--- 17.1 18.086wxwxwxwx2wx--1020.9 996.7----wx

 

Źródłem pochodzenia danych jest Instytut Meteorologii i Gospodarki Wodnej – Państwowy Instytut Badawczy. Dane Instytutu Meteorologii i Gospodarki Wodnej – Państwowego Instytutu Badawczego zostały przetworzone.

Dane źródłowe można odnaleźć na stronie https://dane.imgw.pl